createdAt,value
2018-11-29T00:00:01.005Z,37.33
2018-11-29T00:02:44.055Z,43.27
2018-11-29T00:05:44.893Z,39.77
2018-11-29T00:08:34.467Z,40.23
2018-11-29T00:11:15.651Z,38.37
2018-11-29T00:13:56.845Z,34.80
2018-11-29T00:16:38.395Z,38.63
2018-11-29T00:19:20.468Z,41.03
2018-11-29T00:22:01.673Z,40.77
2018-11-29T00:24:43.536Z,38.07
2018-11-29T00:27:25.233Z,36.47
2018-11-29T00:30:12.999Z,41.37
2018-11-29T00:32:55.937Z,36.93
2018-11-29T00:35:37.665Z,35.77
2018-11-29T00:38:20.352Z,37.40
2018-11-29T00:41:01.722Z,34.87
2018-11-29T00:43:43.227Z,35.73
2018-11-29T00:46:24.462Z,34.90
2018-11-29T00:49:06.502Z,29.43
2018-11-29T00:51:48.750Z,30.80
2018-11-29T00:54:30.083Z,28.93
2018-11-29T00:57:11.892Z,27.30
2018-11-29T00:59:53.321Z,28.30
2018-11-29T01:02:35.587Z,25.17
2018-11-29T01:05:16.974Z,28.70
2018-11-29T01:07:58.429Z,28.37
2018-11-29T01:10:40.035Z,33.70
2018-11-29T01:13:21.683Z,23.33
2018-11-29T01:16:04.961Z,27.37
2018-11-29T01:18:46.582Z,24.93
2018-11-29T01:21:27.980Z,21.40
2018-11-29T01:24:10.011Z,26.93
2018-11-29T01:26:51.985Z,25.20
2018-11-29T01:29:33.300Z,25.07
2018-11-29T01:32:14.789Z,26.60
2018-11-29T01:34:56.738Z,24.90
2018-11-29T01:37:41.586Z,26.57
2018-11-29T01:40:23.626Z,24.00
2018-11-29T01:43:04.884Z,22.73
2018-11-29T01:45:47.369Z,25.17
2018-11-29T01:48:28.652Z,24.50
2018-11-29T01:51:10.692Z,22.83
2018-11-29T01:53:51.977Z,28.20
2018-11-29T01:56:34.008Z,26.10
2018-11-29T01:59:15.170Z,27.73
2018-11-29T02:01:56.459Z,25.43
2018-11-29T02:04:37.679Z,27.50
2018-11-29T02:07:20.077Z,25.27
2018-11-29T02:10:06.553Z,26.57
2018-11-29T02:12:48.037Z,25.83
2018-11-29T02:15:29.524Z,29.27
2018-11-29T02:18:11.054Z,26.70
2018-11-29T02:20:52.884Z,27.20
2018-11-29T02:23:34.493Z,26.40
2018-11-29T02:26:15.654Z,26.03
2018-11-29T02:28:57.267Z,27.70
2018-11-29T02:31:39.580Z,26.73
2018-11-29T02:34:22.388Z,30.62
2018-11-29T02:37:03.751Z,28.13
2018-11-29T02:39:45.264Z,31.17
2018-11-29T02:42:27.057Z,28.80
2018-11-29T02:45:21.760Z,35.10
2018-11-29T02:48:02.928Z,31.13
2018-11-29T02:50:44.656Z,38.10
2018-11-29T02:53:27.034Z,32.17
2018-11-29T02:56:08.520Z,31.00
2018-11-29T02:58:49.834Z,30.20
2018-11-29T03:01:31.512Z,30.97
2018-11-29T03:04:12.746Z,32.77
2018-11-29T03:06:54.076Z,33.67
2018-11-29T03:09:36.076Z,30.33
2018-11-29T03:12:17.711Z,30.70
2018-11-29T03:14:59.228Z,32.10
2018-11-29T03:17:41.025Z,30.90
2018-11-29T03:20:23.143Z,31.53
2018-11-29T03:23:05.107Z,35.87
2018-11-29T03:25:46.930Z,32.73
2018-11-29T03:28:28.593Z,29.60
2018-11-29T03:31:10.442Z,30.47
2018-11-29T03:33:52.466Z,31.27
2018-11-29T03:36:33.667Z,30.63
2018-11-29T03:39:14.982Z,35.20
2018-11-29T03:41:56.639Z,36.37
2018-11-29T03:44:37.920Z,32.77
2018-11-29T03:47:19.208Z,33.60
2018-11-29T03:50:02.125Z,34.20
2018-11-29T03:52:43.770Z,34.57
2018-11-29T03:55:25.529Z,33.03
2018-11-29T03:58:08.457Z,33.77
2018-11-29T04:00:49.772Z,32.80
2018-11-29T04:03:31.473Z,28.77
2018-11-29T04:06:12.710Z,33.40
2018-11-29T04:08:54.091Z,35.70
2018-11-29T04:11:35.571Z,33.30
2018-11-29T04:14:17.063Z,35.17
2018-11-29T04:16:58.727Z,35.57
2018-11-29T04:19:40.623Z,36.23
2018-11-29T04:22:22.426Z,35.47
2018-11-29T04:25:03.779Z,36.83
2018-11-29T04:27:45.881Z,39.87
2018-11-29T04:30:27.443Z,33.80
2018-11-29T04:33:08.720Z,31.30
2018-11-29T04:35:49.993Z,36.50
2018-11-29T04:38:31.625Z,35.67
2018-11-29T04:41:13.258Z,32.90
2018-11-29T04:43:54.497Z,36.90
2018-11-29T04:46:43.639Z,33.53
2018-11-29T04:49:25.305Z,37.47
2018-11-29T04:52:06.596Z,38.83
2018-11-29T04:54:48.017Z,33.97
2018-11-29T04:57:29.917Z,33.43
2018-11-29T05:00:14.698Z,33.20
2018-11-29T05:02:56.079Z,38.00
2018-11-29T05:05:37.731Z,31.00
2018-11-29T05:08:19.107Z,30.40
2018-11-29T05:11:00.603Z,33.47
2018-11-29T05:13:41.676Z,36.93
2018-11-29T05:16:23.013Z,36.20
2018-11-29T05:19:04.963Z,37.30
2018-11-29T05:21:46.931Z,39.20
2018-11-29T05:24:28.601Z,42.40
2018-11-29T05:27:10.446Z,34.23
2018-11-29T05:29:52.227Z,34.53
2018-11-29T05:32:34.181Z,36.77
2018-11-29T05:35:15.992Z,37.23
2018-11-29T05:37:57.505Z,33.20
2018-11-29T05:40:39.672Z,40.13
2018-11-29T05:43:21.676Z,43.17
2018-11-29T05:46:03.624Z,34.70
2018-11-29T05:48:44.852Z,40.03
2018-11-29T05:51:26.790Z,40.30
2018-11-29T05:54:08.585Z,38.23
2018-11-29T05:56:50.875Z,38.60
2018-11-29T05:59:33.460Z,38.97
2018-11-29T06:02:14.820Z,36.27
2018-11-29T06:04:57.039Z,38.80
2018-11-29T06:07:38.379Z,39.93
2018-11-29T06:10:20.684Z,41.63
2018-11-29T06:13:02.786Z,39.67
2018-11-29T06:15:44.020Z,38.40
2018-11-29T06:18:25.637Z,41.33
2018-11-29T06:21:07.434Z,37.50
2018-11-29T06:23:49.054Z,37.03
2018-11-29T06:26:30.709Z,38.43
2018-11-29T06:29:11.913Z,38.30
2018-11-29T06:31:53.326Z,42.87
2018-11-29T06:34:35.746Z,37.67
2018-11-29T06:37:17.144Z,35.90
2018-11-29T06:39:58.795Z,41.83
2018-11-29T06:42:40.581Z,42.17
2018-11-29T06:45:23.096Z,35.77
2018-11-29T06:48:04.839Z,38.57
2018-11-29T06:50:46.543Z,37.07
2018-11-29T06:53:33.023Z,37.17
2018-11-29T06:56:14.667Z,41.43
2018-11-29T06:58:56.207Z,39.03
2018-11-29T07:01:38.052Z,35.97
2018-11-29T07:04:19.662Z,38.13
2018-11-29T07:07:01.464Z,38.33
2018-11-29T07:09:43.431Z,41.23
2018-11-29T07:12:24.764Z,41.20
2018-11-29T07:15:09.099Z,38.40
2018-11-29T07:17:50.717Z,39.47
2018-11-29T07:20:32.864Z,37.13
2018-11-29T07:23:15.066Z,42.87
2018-11-29T07:26:02.984Z,34.80
2018-11-29T07:28:44.341Z,40.40
2018-11-29T07:31:25.949Z,36.90
2018-11-29T07:34:08.509Z,39.57
2018-11-29T07:36:50.435Z,37.27
2018-11-29T07:39:31.642Z,40.13
2018-11-29T07:42:13.096Z,34.00
2018-11-29T07:44:54.790Z,34.77
2018-11-29T07:47:36.144Z,37.57
2018-11-29T07:50:25.460Z,41.00
2018-11-29T07:53:07.648Z,36.37
2018-11-29T07:55:49.513Z,34.93
2018-11-29T07:58:30.865Z,36.87
2018-11-29T08:01:12.384Z,34.13
2018-11-29T08:03:53.878Z,35.53
2018-11-29T08:06:35.556Z,43.47
2018-11-29T08:09:16.864Z,36.00
2018-11-29T08:11:58.284Z,37.20
2018-11-29T08:14:40.347Z,35.10
2018-11-29T08:17:22.191Z,33.40
2018-11-29T08:20:05.687Z,35.03
2018-11-29T08:22:47.850Z,34.90
2018-11-29T08:25:29.614Z,25.92
2018-11-29T08:28:11.953Z,31.40
2018-11-29T08:30:54.357Z,31.17
2018-11-29T08:33:36.130Z,38.25
2018-11-29T08:36:18.026Z,34.65
2018-11-29T08:39:00.363Z,36.93
2018-11-29T08:41:42.593Z,40.63
2018-11-29T08:44:25.113Z,34.67
2018-11-29T08:47:07.554Z,37.98
2018-11-29T08:49:49.785Z,35.52
2018-11-29T08:52:32.722Z,32.25
2018-11-29T08:55:16.020Z,37.80
2018-11-29T08:57:57.883Z,37.08
2018-11-29T09:00:39.718Z,37.15
2018-11-29T09:03:21.911Z,38.78
2018-11-29T09:06:03.691Z,41.70
2018-11-29T09:08:45.697Z,36.88
2018-11-29T09:11:28.283Z,36.60
2018-11-29T09:14:10.486Z,39.38
2018-11-29T09:16:52.204Z,41.83
2018-11-29T09:19:37.494Z,39.63
2018-11-29T09:22:17.927Z,40.70
2018-11-29T09:24:59.144Z,36.53
2018-11-29T09:27:41.103Z,38.95
2018-11-29T09:30:23.803Z,38.23
2018-11-29T09:33:06.164Z,34.98
2018-11-29T09:35:48.579Z,39.92
2018-11-29T09:38:30.695Z,37.33
2018-11-29T09:41:12.884Z,37.38
2018-11-29T09:43:55.747Z,34.98
2018-11-29T09:46:38.404Z,38.73
2018-11-29T09:49:20.507Z,35.03
2018-11-29T09:52:02.234Z,32.95
2018-11-29T09:54:43.967Z,35.83
2018-11-29T09:57:25.833Z,35.35
2018-11-29T10:00:40.872Z,34.65
2018-11-29T10:03:22.800Z,37.48
2018-11-29T10:06:05.649Z,34.67
2018-11-29T10:08:47.655Z,37.58
2018-11-29T10:11:29.837Z,34.35
2018-11-29T10:14:11.692Z,32.30
2018-11-29T10:16:53.913Z,34.50
2018-11-29T10:19:36.514Z,37.45
2018-11-29T10:22:18.270Z,37.25
2018-11-29T10:25:00.023Z,34.90
2018-11-29T10:27:45.600Z,37.50
2018-11-29T10:30:37.187Z,34.88
2018-11-29T10:33:19.634Z,32.70
2018-11-29T10:36:02.194Z,36.35
2018-11-29T10:38:44.144Z,35.35
2018-11-29T10:41:26.404Z,35.60
2018-11-29T10:44:09.603Z,32.45
2018-11-29T10:46:52.034Z,34.65
2018-11-29T10:49:33.930Z,33.28
2018-11-29T10:52:15.947Z,28.90
2018-11-29T10:54:58.407Z,35.23
2018-11-29T10:57:41.097Z,37.93
2018-11-29T11:00:30.193Z,35.50
2018-11-29T11:03:18.540Z,33.95
2018-11-29T11:06:00.191Z,33.45
2018-11-29T11:08:42.586Z,31.48
2018-11-29T11:11:24.474Z,35.30
2018-11-29T11:14:07.093Z,38.25
2018-11-29T11:16:49.278Z,35.25
2018-11-29T11:19:32.601Z,31.23
2018-11-29T11:22:14.374Z,34.80
2018-11-29T11:24:56.160Z,41.92
2018-11-29T11:27:38.265Z,33.98
2018-11-29T11:30:21.660Z,29.23
2018-11-29T11:33:03.485Z,29.80
2018-11-29T11:35:45.205Z,36.55
2018-11-29T11:38:28.139Z,40.95
2018-11-29T11:41:10.780Z,33.02
2018-11-29T11:43:53.294Z,33.53
2018-11-29T11:46:35.402Z,36.17
2018-11-29T11:49:17.656Z,41.05
2018-11-29T11:51:59.365Z,31.68
2018-11-29T11:54:41.161Z,29.07
2018-11-29T11:57:23.554Z,30.75
2018-11-29T12:00:10.387Z,31.73
2018-11-29T12:03:01.483Z,33.20
2018-11-29T12:05:43.642Z,32.83
2018-11-29T12:08:25.395Z,33.92
2018-11-29T12:11:07.807Z,31.85
2018-11-29T12:13:49.981Z,33.18
2018-11-29T12:16:32.354Z,30.43
2018-11-29T12:19:14.497Z,35.35
2018-11-29T12:21:56.692Z,37.13
2018-11-29T12:24:38.621Z,29.23
2018-11-29T12:27:20.920Z,30.88
2018-11-29T12:30:03.020Z,37.05
2018-11-29T12:32:45.003Z,32.30
2018-11-29T12:35:27.265Z,31.10
2018-11-29T12:38:10.126Z,42.93
2018-11-29T12:40:52.443Z,30.40
2018-11-29T12:43:36.199Z,34.23
2018-11-29T12:46:18.291Z,37.78
2018-11-29T12:49:00.757Z,28.98
2018-11-29T12:51:42.636Z,33.53
2018-11-29T12:54:24.478Z,32.28
2018-11-29T12:57:06.829Z,32.08
2018-11-29T12:59:48.940Z,32.95
2018-11-29T13:02:31.676Z,36.42
2018-11-29T13:05:13.659Z,36.03
2018-11-29T13:07:55.952Z,32.80
2018-11-29T13:10:38.701Z,32.20
2018-11-29T13:13:21.779Z,35.88
2018-11-29T13:16:03.579Z,33.02
2018-11-29T13:18:46.265Z,31.90
2018-11-29T13:21:28.910Z,35.48
2018-11-29T13:24:10.987Z,33.98
2018-11-29T13:26:53.422Z,34.27
2018-11-29T13:29:35.191Z,34.65
2018-11-29T13:32:17.690Z,34.83
2018-11-29T13:34:59.748Z,37.23
2018-11-29T13:37:41.774Z,34.60
2018-11-29T13:40:23.643Z,34.55
2018-11-29T13:43:07.229Z,35.10
2018-11-29T13:45:50.272Z,34.75
2018-11-29T13:48:32.265Z,33.98
2018-11-29T13:51:14.554Z,37.35
2018-11-29T13:53:56.921Z,33.38
2018-11-29T13:56:38.642Z,34.58
2018-11-29T13:59:20.915Z,34.45
2018-11-29T14:02:03.015Z,35.20
2018-11-29T14:04:44.809Z,35.08
2018-11-29T14:07:26.882Z,39.42
2018-11-29T14:10:12.556Z,32.23
2018-11-29T14:12:58.152Z,30.25
2018-11-29T14:15:40.145Z,32.30
2018-11-29T14:18:22.568Z,34.73
2018-11-29T14:21:05.195Z,44.15
2018-11-29T14:23:47.319Z,31.23
2018-11-29T14:26:29.429Z,33.58
2018-11-29T14:29:12.431Z,32.17
2018-11-29T14:31:55.115Z,33.80
2018-11-29T14:34:38.322Z,33.05
2018-11-29T14:37:20.251Z,33.95
2018-11-29T14:40:02.391Z,32.10
2018-11-29T14:42:45.348Z,31.45
2018-11-29T14:45:28.000Z,36.00
2018-11-29T14:48:09.870Z,30.40
2018-11-29T14:50:52.573Z,29.75
2018-11-29T14:53:34.477Z,32.93
2018-11-29T14:56:16.431Z,33.60
2018-11-29T14:58:58.713Z,31.75
2018-11-29T15:01:40.944Z,34.05
2018-11-29T15:04:23.580Z,28.40
2018-11-29T15:07:06.304Z,34.10
2018-11-29T15:09:48.525Z,29.52
2018-11-29T15:12:30.443Z,27.05
2018-11-29T15:15:13.515Z,27.40
2018-11-29T15:17:56.967Z,31.77
2018-11-29T15:20:44.072Z,35.98
2018-11-29T15:23:25.951Z,24.87
2018-11-29T15:26:07.872Z,27.75
2018-11-29T15:28:52.476Z,29.85
2018-11-29T15:31:34.852Z,23.75
2018-11-29T15:34:16.951Z,24.12
2018-11-29T15:36:59.031Z,24.63
2018-11-29T15:39:40.748Z,22.95
2018-11-29T15:42:23.171Z,23.77
2018-11-29T15:45:08.533Z,26.25
2018-11-29T15:47:50.666Z,26.62
2018-11-29T15:50:33.824Z,27.00
2018-11-29T15:53:15.940Z,22.95
2018-11-29T15:55:57.952Z,22.55
2018-11-29T15:58:39.962Z,22.75
2018-11-29T16:01:22.372Z,23.52
2018-11-29T16:04:04.259Z,23.60
2018-11-29T16:06:46.299Z,20.15
2018-11-29T16:09:28.546Z,20.40
2018-11-29T16:12:10.711Z,21.37
2018-11-29T16:14:53.399Z,23.85
2018-11-29T16:17:35.195Z,19.77
2018-11-29T16:20:30.996Z,17.55
2018-11-29T16:23:13.199Z,18.30
2018-11-29T16:25:55.015Z,19.98
2018-11-29T16:28:37.147Z,19.12
2018-11-29T16:31:19.527Z,16.52
2018-11-29T16:34:02.912Z,21.17
2018-11-29T16:36:45.375Z,16.15
2018-11-29T16:39:28.535Z,19.12
2018-11-29T16:42:11.732Z,18.87
2018-11-29T16:44:53.754Z,15.05
2018-11-29T16:47:35.658Z,17.45
2018-11-29T16:50:18.507Z,19.48
2018-11-29T16:53:01.204Z,20.20
2018-11-29T16:55:45.954Z,19.05
2018-11-29T16:58:30.744Z,17.50
2018-11-29T17:01:12.812Z,18.20
2018-11-29T17:03:55.532Z,16.80
2018-11-29T17:06:37.688Z,18.50
2018-11-29T17:09:19.457Z,17.82
2018-11-29T17:12:01.886Z,18.00
2018-11-29T17:14:43.683Z,16.65
2018-11-29T17:17:26.137Z,16.80
2018-11-29T17:20:11.633Z,20.12
2018-11-29T17:23:07.542Z,18.00
2018-11-29T17:25:49.810Z,18.52
2018-11-29T17:28:31.915Z,18.05
2018-11-29T17:31:16.015Z,20.00
2018-11-29T17:33:57.686Z,17.55
2018-11-29T17:36:39.815Z,21.75
2018-11-29T17:39:22.218Z,20.43
2018-11-29T17:42:04.359Z,21.27
2018-11-29T17:44:46.113Z,21.15
2018-11-29T17:47:28.467Z,21.25
2018-11-29T17:50:46.759Z,22.57
2018-11-29T17:53:28.886Z,22.98
2018-11-29T17:56:13.619Z,21.52
2018-11-29T17:58:55.629Z,21.20
2018-11-29T18:01:37.726Z,21.10
2018-11-29T18:04:19.931Z,25.17
2018-11-29T18:07:03.774Z,20.45
2018-11-29T18:09:47.168Z,25.43
2018-11-29T18:12:29.476Z,22.75
2018-11-29T18:15:28.855Z,27.07
2018-11-29T18:18:11.021Z,27.37
2018-11-29T18:20:53.726Z,22.58
2018-11-29T18:23:36.810Z,31.42
2018-11-29T18:26:18.583Z,36.20
2018-11-29T18:29:00.328Z,26.30
2018-11-29T18:31:42.597Z,28.00
2018-11-29T18:34:25.195Z,27.27
2018-11-29T18:37:07.522Z,24.63
2018-11-29T18:39:50.607Z,25.12
2018-11-29T18:42:33.471Z,29.77
2018-11-29T18:45:18.454Z,27.48
2018-11-29T18:48:01.633Z,23.73
2018-11-29T18:50:44.796Z,26.50
2018-11-29T18:53:29.262Z,25.43
2018-11-29T18:56:11.358Z,28.52
2018-11-29T18:58:55.202Z,27.45
2018-11-29T19:01:36.968Z,26.35
2018-11-29T19:04:19.668Z,27.45
2018-11-29T19:07:01.119Z,29.40
2018-11-29T19:09:42.719Z,23.95
2018-11-29T19:12:25.150Z,23.32
2018-11-29T19:15:12.457Z,25.50
2018-11-29T19:17:55.510Z,25.30
2018-11-29T19:20:38.641Z,27.45
2018-11-29T19:23:20.585Z,27.25
2018-11-29T19:26:05.321Z,23.00
2018-11-29T19:28:47.188Z,31.90
2018-11-29T19:31:29.624Z,25.17
2018-11-29T19:34:11.790Z,28.27
2018-11-29T19:36:55.424Z,28.23
2018-11-29T19:39:39.421Z,23.63
2018-11-29T19:42:21.771Z,25.33
2018-11-29T19:45:05.398Z,27.65
2018-11-29T19:47:47.823Z,28.65
2018-11-29T19:50:29.597Z,21.73
2018-11-29T19:53:18.034Z,26.30
2018-11-29T19:56:02.877Z,21.30
2018-11-29T19:58:44.609Z,23.37
2018-11-29T20:01:26.433Z,23.60
2018-11-29T20:04:10.681Z,23.93
2018-11-29T20:06:52.380Z,21.07
2018-11-29T20:09:33.656Z,24.80
2018-11-29T20:12:15.929Z,23.73
2018-11-29T20:14:57.447Z,23.33
2018-11-29T20:17:39.137Z,19.50
2018-11-29T20:20:20.933Z,24.02
2018-11-29T20:23:02.638Z,24.20
2018-11-29T20:25:47.008Z,22.37
2018-11-29T20:28:30.543Z,20.87
2018-11-29T20:31:13.648Z,23.23
2018-11-29T20:33:56.347Z,21.42
2018-11-29T20:36:40.320Z,23.40
2018-11-29T20:39:23.032Z,23.33
2018-11-29T20:42:05.117Z,20.43
2018-11-29T20:44:46.845Z,19.93
2018-11-29T20:47:28.635Z,19.03
2018-11-29T20:50:14.800Z,21.52
2018-11-29T20:52:57.311Z,20.67
2018-11-29T20:55:39.074Z,21.23
2018-11-29T20:58:20.421Z,21.50
2018-11-29T21:01:01.931Z,19.00
2018-11-29T21:03:44.369Z,20.40
2018-11-29T21:06:26.693Z,24.40
2018-11-29T21:09:11.849Z,19.80
2018-11-29T21:11:58.247Z,20.32
2018-11-29T21:14:44.346Z,21.80
2018-11-29T21:17:26.032Z,20.33
2018-11-29T21:20:11.290Z,19.63
2018-11-29T21:22:54.723Z,20.60
2018-11-29T21:25:36.535Z,16.63
2018-11-29T21:28:19.206Z,17.77
2018-11-29T21:31:00.632Z,18.77
2018-11-29T21:33:41.912Z,20.63
2018-11-29T21:36:24.799Z,20.20
2018-11-29T21:39:07.405Z,17.30
2018-11-29T21:41:49.447Z,15.87
2018-11-29T21:44:30.620Z,17.40
2018-11-29T21:47:12.313Z,17.07
2018-11-29T21:49:54.050Z,18.40
2018-11-29T21:52:35.175Z,15.80
2018-11-29T21:55:16.626Z,16.33
2018-11-29T21:57:58.357Z,20.07
2018-11-29T22:00:39.780Z,18.60
2018-11-29T22:03:21.778Z,18.00
2018-11-29T22:06:03.431Z,17.83
2018-11-29T22:08:45.705Z,15.60
2018-11-29T22:11:29.309Z,20.23
2018-11-29T22:14:10.879Z,18.37
2018-11-29T22:16:52.952Z,18.10
2018-11-29T22:19:34.182Z,17.13
2018-11-29T22:22:16.068Z,15.30
2018-11-29T22:24:57.439Z,15.40
2018-11-29T22:27:39.381Z,19.03
2018-11-29T22:30:20.966Z,19.27
2018-11-29T22:33:02.641Z,18.83
2018-11-29T22:35:44.358Z,19.13
2018-11-29T22:38:26.059Z,18.40
2018-11-29T22:41:07.808Z,18.47
2018-11-29T22:43:50.237Z,15.00
2018-11-29T22:46:31.665Z,17.63
2018-11-29T22:49:13.004Z,16.83
2018-11-29T22:51:54.526Z,18.03
2018-11-29T22:54:36.372Z,22.85
2018-11-29T22:57:18.228Z,15.40
2018-11-29T23:00:01.145Z,19.77
2018-11-29T23:02:42.446Z,18.90
2018-11-29T23:05:27.974Z,16.67
2018-11-29T23:08:09.955Z,20.33
2018-11-29T23:10:51.515Z,18.70
2018-11-29T23:13:32.878Z,21.30
2018-11-29T23:16:14.449Z,18.00
2018-11-29T23:18:56.163Z,19.10
2018-11-29T23:21:37.800Z,21.90
2018-11-29T23:24:20.255Z,16.97
2018-11-29T23:27:02.064Z,18.80
2018-11-29T23:29:43.427Z,22.20
2018-11-29T23:32:24.642Z,22.83
2018-11-29T23:35:06.358Z,21.80
2018-11-29T23:37:47.848Z,19.13
2018-11-29T23:40:29.840Z,19.33
2018-11-29T23:43:11.810Z,18.10
2018-11-29T23:45:53.206Z,20.20
2018-11-29T23:48:34.405Z,19.07
2018-11-29T23:51:16.089Z,20.57
2018-11-29T23:53:57.518Z,19.40
2018-11-29T23:56:38.673Z,18.17
2018-11-29T23:59:20.802Z,22.20
